^^
B2 Weather Station Historical Data
Daily Summary for January 3, 2017 Units:  English    Metric   Both
Daily Weekly Monthly Yearly Custom
  High: Low: Average:
Temperature: 40.8 °F 21.2 °F 36.4 °F
Dew Point: 40.0 °F 16.8 °F 35.1 °F
Humidity: 97% 82% 95%
Wind Speed: 24.2mph 0.0mph 7.8mph
Wind Gust: 24.2mph - -
Wind- - West
Pressure: 29.96 in 29.76 in -
Precipitation: 0.17 in    
Historical Graphs
 
 
Tabular Data for January 3, 2017
Time Temperature Dew Point Pressure Wind Wind Speed Wind Gust Humidity Rainfall Rate (Hourly) solar
00:04 38.7 °F 37.9 °F 29.87 in Calm     97% 0.00 in 0.0 W/m2
00:09 38.8 °F 38.0 °F 29.86 in North 3.5 mph 3.5 mph 97% 0.00 in 0.0 W/m2
00:14 38.7 °F 37.9 °F 29.86 in Calm     97% 0.00 in 0.0 W/m2
00:19 38.8 °F 38.0 °F 29.86 in Calm     97% 0.00 in 0.0 W/m2
00:24 38.8 °F 38.0 °F 29.86 in Calm     97% 0.00 in 0.0 W/m2
00:29 38.8 °F 38.0 °F 29.85 in Calm     97% 0.00 in 0.0 W/m2
00:34 38.6 °F 37.8 °F 29.85 in Calm     97% 0.00 in 0.0 W/m2
00:39 38.7 °F 37.9 °F 29.85 in Calm     97% 0.00 in 0.0 W/m2
00:44 38.7 °F 37.9 °F 29.85 in Calm     97% 0.00 in 0.0 W/m2
00:49 38.7 °F 37.9 °F 29.84 in Calm     97% 0.00 in 0.0 W/m2
00:54 38.7 °F 37.9 °F 29.84 in Calm     97% 0.00 in 0.0 W/m2
00:59 38.7 °F 37.9 °F 29.84 in Calm     97% 0.00 in 0.0 W/m2
01:04 38.8 °F 37.8 °F 29.84 in Calm     96% 0.00 in 0.0 W/m2
01:09 38.8 °F 37.8 °F 29.84 in Calm     96% 0.00 in 0.0 W/m2
01:14 38.8 °F 37.8 °F 29.84 in Calm     96% 0.00 in 0.0 W/m2
01:19 38.8 °F 37.8 °F 29.84 in North 3.5 mph 3.5 mph 96% 0.00 in 0.0 W/m2
01:24 38.8 °F 37.8 °F 29.84 in Calm     96% 0.00 in 0.0 W/m2
01:29 38.8 °F 37.8 °F 29.84 in Calm     96% 0.00 in 0.0 W/m2
01:34 38.9 °F 37.9 °F 29.84 in Calm     96% 0.00 in 0.0 W/m2
01:39 39.0 °F 38.0 °F 29.84 in Calm     96% 0.00 in 0.0 W/m2
01:44 39.1 °F 38.1 °F 29.84 in Calm     96% 0.00 in 0.0 W/m2
01:49 39.2 °F 38.2 °F 29.84 in Calm     96% 0.00 in 0.0 W/m2
01:54 39.1 °F 38.1 °F 29.84 in Calm     96% 0.00 in 0.0 W/m2
01:59 39.0 °F 38.0 °F 29.84 in Calm     96% 0.00 in 0.0 W/m2
02:04 38.9 °F 37.9 °F 29.84 in Calm     96% 0.00 in 0.0 W/m2
02:09 38.8 °F 37.8 °F 29.84 in Calm     96% 0.00 in 0.0 W/m2
02:10 38.8 °F 37.8 °F 29.84 in Calm     96% 0.00 in 0.0 W/m2
02:15 38.7 °F 37.7 °F 29.84 in Calm     96% 0.00 in 0.0 W/m2
02:20 38.7 °F 37.7 °F 29.84 in Calm     96% 0.00 in 0.0 W/m2
02:25 38.6 °F 37.6 °F 29.83 in Calm     96% 0.00 in 0.0 W/m2
02:30 38.4 °F 37.4 °F 29.83 in Calm     96% 0.00 in 0.0 W/m2
02:35 38.4 °F 37.4 °F 29.83 in Calm     96% 0.00 in 0.0 W/m2
02:40 38.4 °F 37.4 °F 29.83 in Calm     96% 0.00 in 0.0 W/m2
02:45 38.3 °F 37.3 °F 29.83 in Calm     96% 0.00 in 0.0 W/m2
02:50 38.3 °F 37.3 °F 29.83 in Calm     96% 0.00 in 0.0 W/m2
02:55 38.3 °F 37.3 °F 29.83 in Calm     96% 0.00 in 0.0 W/m2
03:00 38.3 °F 37.3 °F 29.82 in Calm     96% 0.00 in 0.0 W/m2
03:05 38.3 °F 37.3 °F 29.82 in Calm     96% 0.00 in 0.0 W/m2
03:10 38.3 °F 37.3 °F 29.82 in Calm     96% 0.00 in 0.0 W/m2
03:15 38.4 °F 37.4 °F 29.82 in Calm     96% 0.00 in 0.0 W/m2
03:20 38.4 °F 37.4 °F 29.82 in Calm     96% 0.00 in 0.0 W/m2
03:25 38.5 °F 37.5 °F 29.81 in Calm     96% 0.00 in 0.0 W/m2
03:30 38.5 °F 37.5 °F 29.82 in Calm     96% 0.00 in 0.0 W/m2
03:35 38.5 °F 37.5 °F 29.81 in Calm     96% 0.00 in 0.0 W/m2
03:40 38.4 °F 37.4 °F 29.81 in Calm     96% 0.00 in 0.0 W/m2
03:45 38.3 °F 37.3 °F 29.81 in Calm     96% 0.00 in 0.0 W/m2
03:50 38.3 °F 37.3 °F 29.81 in Calm     96% 0.00 in 0.0 W/m2
03:55 38.4 °F 37.4 °F 29.81 in Calm     96% 0.00 in 0.0 W/m2
04:00 38.4 °F 37.4 °F 29.81 in Calm     96% 0.00 in 0.0 W/m2
04:05 38.5 °F 37.5 °F 29.81 in Calm     96% 0.00 in 0.0 W/m2
04:10 38.5 °F 37.5 °F 29.80 in Calm     96% 0.00 in 0.0 W/m2
04:15 38.6 °F 37.6 °F 29.80 in Calm     96% 0.00 in 0.0 W/m2
04:20 38.7 °F 37.9 °F 29.80 in Calm     97% 0.00 in 0.0 W/m2
04:25 38.7 °F 37.9 °F 29.80 in Calm     97% 0.00 in 0.0 W/m2
04:30 38.7 °F 37.7 °F 29.79 in Calm     96% 0.00 in 0.0 W/m2
04:35 38.6 °F 37.6 °F 29.79 in Calm     96% 0.00 in 0.0 W/m2
04:40 38.6 °F 37.6 °F 29.79 in Calm     96% 0.00 in 0.0 W/m2
04:45 38.5 °F 37.5 °F 29.79 in Calm     96% 0.00 in 0.0 W/m2
04:50 38.4 °F 37.4 °F 29.79 in Calm     96% 0.00 in 0.0 W/m2
04:55 38.5 °F 37.5 °F 29.79 in Calm     96% 0.00 in 0.0 W/m2
05:00 38.6 °F 37.6 °F 29.79 in Calm     96% 0.00 in 0.0 W/m2
05:05 38.6 °F 37.6 °F 29.78 in Calm     96% 0.00 in 0.0 W/m2
05:10 38.6 °F 37.6 °F 29.78 in North 4.6 mph 4.6 mph 96% 0.00 in 0.0 W/m2
05:15 38.6 °F 37.6 °F 29.78 in North 3.5 mph 3.5 mph 96% 0.00 in 0.0 W/m2
05:20 38.5 °F 37.7 °F 29.78 in North 3.5 mph 3.5 mph 97% 0.00 in 0.0 W/m2
05:25 38.4 °F 37.6 °F 29.78 in North 3.5 mph 3.5 mph 97% 0.00 in 0.0 W/m2
05:30 38.6 °F 37.8 °F 29.78 in Calm     97% 0.00 in 0.0 W/m2
05:35 38.7 °F 37.9 °F 29.78 in Calm     97% 0.00 in 0.0 W/m2
05:40 38.7 °F 37.9 °F 29.78 in Calm     97% 0.00 in 0.0 W/m2
05:45 38.7 °F 37.9 °F 29.78 in Calm     97% 0.00 in 0.0 W/m2
05:50 38.7 °F 37.9 °F 29.78 in Calm     97% 0.00 in 0.0 W/m2
05:55 38.7 °F 37.9 °F 29.78 in North 4.6 mph 4.6 mph 97% 0.00 in 0.0 W/m2
06:00 38.7 °F 37.9 °F 29.78 in North 5.8 mph 5.8 mph 97% 0.00 in 0.0 W/m2
06:05 38.7 °F 37.9 °F 29.78 in North 5.8 mph 5.8 mph 97% 0.00 in 0.0 W/m2
06:10 38.8 °F 38.0 °F 29.78 in North 5.8 mph 5.8 mph 97% 0.00 in 0.0 W/m2
06:15 38.8 °F 38.0 °F 29.78 in North 4.6 mph 4.6 mph 97% 0.00 in 0.0 W/m2
06:20 38.8 °F 38.0 °F 29.79 in North 3.5 mph 3.5 mph 97% 0.00 in 0.0 W/m2
06:25 38.8 °F 38.0 °F 29.78 in North 3.5 mph 3.5 mph 97% 0.00 in 0.0 W/m2
06:30 38.8 °F 38.0 °F 29.78 in North 3.5 mph 3.5 mph 97% 0.00 in 0.0 W/m2
06:35 38.8 °F 38.0 °F 29.79 in North 3.5 mph 3.5 mph 97% 0.00 in 0.0 W/m2
06:40 38.9 °F 38.1 °F 29.79 in Calm     97% 0.00 in 0.0 W/m2
06:45 38.9 °F 38.1 °F 29.79 in Calm     97% 0.00 in 0.0 W/m2
06:50 38.9 °F 38.1 °F 29.79 in Calm     97% 0.00 in 0.0 W/m2
06:55 38.8 °F 38.0 °F 29.79 in North 4.0 mph 4.0 mph 97% 0.00 in 0.0 W/m2
07:00 38.8 °F 38.0 °F 29.78 in North 4.6 mph 4.6 mph 97% 0.00 in 0.0 W/m2
07:05 38.8 °F 38.0 °F 29.78 in North 5.8 mph 5.8 mph 97% 0.00 in 0.0 W/m2
07:10 38.8 °F 38.0 °F 29.78 in North 4.6 mph 4.6 mph 97% 0.00 in 0.0 W/m2
07:15 38.8 °F 38.0 °F 29.79 in North 3.5 mph 3.5 mph 97% 0.00 in 0.0 W/m2
07:20 38.8 °F 38.0 °F 29.79 in North 3.5 mph 3.5 mph 97% 0.00 in 0.0 W/m2
07:25 38.8 °F 38.0 °F 29.79 in North 3.5 mph 3.5 mph 97% 0.00 in 0.0 W/m2
07:30 38.8 °F 38.0 °F 29.79 in North 3.5 mph 3.5 mph 97% 0.00 in 0.0 W/m2
07:35 38.9 °F 38.1 °F 29.79 in North 3.5 mph 3.5 mph 97% 0.00 in 0.0 W/m2
07:40 38.9 °F 38.1 °F 29.79 in Calm     97% 0.00 in 0.0 W/m2
07:45 39.0 °F 38.2 °F 29.80 in Calm     97% 0.00 in 0.0 W/m2
07:50 39.1 °F 38.3 °F 29.79 in Calm     97% 0.00 in 0.0 W/m2
07:55 39.2 °F 38.4 °F 29.79 in Calm     97% 0.00 in 0.0 W/m2
08:00 39.3 °F 38.5 °F 29.78 in Calm     97% 0.00 in 5.0 W/m2
08:05 39.4 °F 38.6 °F 29.78 in Calm     97% 0.00 in 9.0 W/m2
08:10 39.4 °F 38.6 °F 29.78 in Calm     97% 0.00 in 9.0 W/m2
08:15 39.4 °F 38.6 °F 29.78 in Calm     97% 0.00 in 9.0 W/m2
08:20 39.5 °F 38.7 °F 29.78 in Calm     97% 0.00 in 11.0 W/m2
08:25 39.5 °F 38.7 °F 29.78 in Calm     97% 0.00 in 14.0 W/m2
08:30 39.5 °F 38.7 °F 29.78 in Calm     97% 0.00 in 14.0 W/m2
08:35 39.6 °F 38.8 °F 29.78 in Calm     97% 0.00 in 26.0 W/m2
08:40 39.7 °F 38.9 °F 29.79 in Calm     97% 0.00 in 25.0 W/m2
08:45 39.7 °F 38.9 °F 29.79 in Calm     97% 0.00 in 26.0 W/m2
08:50 39.6 °F 38.8 °F 29.79 in Calm     97% 0.00 in 23.0 W/m2
08:55 39.6 °F 38.8 °F 29.80 in Calm     97% 0.00 in 14.0 W/m2
09:00 39.6 °F 38.8 °F 29.80 in Calm     97% 0.00 in 18.0 W/m2
09:05 39.7 °F 38.9 °F 29.79 in Calm     97% 0.00 in 35.0 W/m2
09:06 39.8 °F 39.0 °F 29.79 in Calm     97% 0.00 in 37.0 W/m2
09:11 40.0 °F 39.2 °F 29.79 in Calm     97% 0.00 in 32.0 W/m2
09:16 40.2 °F 39.4 °F 29.79 in Calm     97% 0.00 in 30.0 W/m2
09:21 40.4 °F 39.6 °F 29.79 in Calm     97% 0.00 in 30.0 W/m2
09:26 40.4 °F 39.6 °F 29.80 in Calm     97% 0.00 in 28.0 W/m2
09:31 40.4 °F 39.6 °F 29.80 in Calm     97% 0.00 in 28.0 W/m2
09:36 40.3 °F 39.5 °F 29.79 in Calm     97% 0.00 in 30.0 W/m2
09:41 40.3 °F 39.5 °F 29.79 in Calm     97% 0.00 in 37.0 W/m2
09:46 40.5 °F 39.7 °F 29.79 in Calm     97% 0.00 in 39.0 W/m2
09:51 40.6 °F 39.8 °F 29.79 in Calm     97% 0.00 in 37.0 W/m2
09:56 40.6 °F 39.8 °F 29.80 in Calm     97% 0.00 in 30.0 W/m2
10:01 40.6 °F 39.8 °F 29.80 in Calm     97% 0.00 in 26.0 W/m2
10:06 40.7 °F 39.9 °F 29.80 in Calm     97% 0.00 in 28.0 W/m2
10:11 40.7 °F 39.9 °F 29.80 in Calm     97% 0.00 in 26.0 W/m2
10:16 40.7 °F 39.9 °F 29.79 in Calm     97% 0.00 in 32.0 W/m2
10:21 40.8 °F 40.0 °F 29.79 in Calm     97% 0.00 in 32.0 W/m2
10:26 40.8 °F 40.0 °F 29.79 in Calm     97% 0.00 in 42.0 W/m2
10:31 40.8 °F 40.0 °F 29.79 in Calm     97% 0.00 in 39.0 W/m2
10:36 40.8 °F 40.0 °F 29.79 in North 3.5 mph 3.5 mph 97% 0.00 in 30.0 W/m2
10:41 40.8 °F 40.0 °F 29.79 in Calm     97% 0.00 in 28.0 W/m2
10:46 40.8 °F 40.0 °F 29.78 in Calm     97% 0.00 in 28.0 W/m2
10:51 40.7 °F 39.9 °F 29.78 in Calm     97% 0.00 in 30.0 W/m2
10:56 40.7 °F 39.9 °F 29.78 in North 6.0 mph 6.0 mph 97% 0.00 in 21.0 W/m2
11:01 40.6 °F 39.8 °F 29.79 in North 5.8 mph 5.8 mph 97% 0.00 in 14.0 W/m2
11:06 40.5 °F 39.7 °F 29.79 in NNW 5.8 mph 5.8 mph 97% 0.00 in 9.0 W/m2
11:11 40.5 °F 39.7 °F 29.80 in NW 9.2 mph 9.2 mph 97% 0.00 in 7.0 W/m2
11:16 40.4 °F 39.6 °F 29.79 in NW 10.4 mph 10.4 mph 97% 0.00 in 11.0 W/m2
11:21 40.4 °F 39.6 °F 29.79 in NW 6.9 mph 6.9 mph 97% 0.02 in 18.0 W/m2
11:26 40.3 °F 39.5 °F 29.80 in WNW 7.0 mph 7.0 mph 97% 0.03 in 11.0 W/m2
11:31 40.3 °F 39.5 °F 29.79 in WNW 6.9 mph 6.9 mph 97% 0.04 in 19.0 W/m2
11:36 40.4 °F 39.6 °F 29.78 in WNW 7.0 mph 7.0 mph 97% 0.04 in 26.0 W/m2
11:41 40.4 °F 39.6 °F 29.78 in WNW 8.1 mph 8.1 mph 97% 0.05 in 28.0 W/m2
11:46 40.5 °F 39.7 °F 29.78 in WNW 5.8 mph 5.8 mph 97% 0.05 in 26.0 W/m2
11:51 40.5 °F 39.7 °F 29.78 in WNW 8.1 mph 8.1 mph 97% 0.06 in 30.0 W/m2
11:56 40.4 °F 39.6 °F 29.77 in NW 6.9 mph 6.9 mph 97% 0.06 in 44.0 W/m2
12:01 40.3 °F 39.5 °F 29.77 in NW 9.2 mph 9.2 mph 97% 0.06 in 33.0 W/m2
12:06 40.2 °F 39.4 °F 29.77 in NW 9.2 mph 9.2 mph 97% 0.06 in 28.0 W/m2
12:11 40.1 °F 39.3 °F 29.77 in NW 8.1 mph 8.1 mph 97% 0.06 in 30.0 W/m2
12:16 40.0 °F 39.2 °F 29.77 in NW 4.6 mph 4.6 mph 97% 0.07 in 28.0 W/m2
12:21 39.9 °F 39.1 °F 29.77 in NW 11.5 mph 11.5 mph 97% 0.05 in 23.0 W/m2
12:26 39.8 °F 39.0 °F 29.76 in NW 11.5 mph 11.5 mph 97% 0.05 in 21.0 W/m2
12:31 39.7 °F 38.9 °F 29.77 in NW 11.5 mph 11.5 mph 97% 0.04 in 23.0 W/m2
12:36 39.7 °F 38.9 °F 29.76 in NW 11.5 mph 11.5 mph 97% 0.04 in 30.0 W/m2
12:41 39.6 °F 38.8 °F 29.76 in NW 12.7 mph 12.7 mph 97% 0.03 in 39.0 W/m2
12:46 39.6 °F 38.8 °F 29.76 in NW 14.0 mph 14.0 mph 97% 0.03 in 46.0 W/m2
12:51 39.6 °F 38.8 °F 29.76 in NNW 11.0 mph 11.0 mph 97% 0.02 in 81.0 W/m2
12:56 39.7 °F 38.9 °F 29.76 in NW 12.7 mph 12.7 mph 97% 0.03 in 74.0 W/m2
13:01 39.6 °F 38.8 °F 29.76 in NW 12.7 mph 12.7 mph 97% 0.03 in 70.0 W/m2
13:06 39.5 °F 38.7 °F 29.76 in NW 11.5 mph 11.5 mph 97% 0.03 in 47.0 W/m2
13:11 39.4 °F 38.6 °F 29.77 in NW 12.7 mph 12.7 mph 97% 0.03 in 46.0 W/m2
13:16 39.3 °F 38.5 °F 29.77 in NW 11.5 mph 11.5 mph 97% 0.02 in 37.0 W/m2
13:21 39.2 °F 38.4 °F 29.77 in WNW 11.5 mph 11.5 mph 97% 0.02 in 28.0 W/m2
13:26 39.1 °F 38.3 °F 29.77 in NW 13.8 mph 13.8 mph 97% 0.01 in 26.0 W/m2
13:31 39.1 °F 38.3 °F 29.77 in NNW 11.5 mph 11.5 mph 97% 0.01 in 21.0 W/m2
13:36 38.9 °F 38.1 °F 29.76 in NW 12.0 mph 12.0 mph 97% 0.02 in 19.0 W/m2
13:41 38.8 °F 38.0 °F 29.76 in NNW 12.7 mph 12.7 mph 97% 0.03 in 19.0 W/m2
13:46 38.7 °F 37.9 °F 29.77 in NW 12.7 mph 12.7 mph 97% 0.04 in 18.0 W/m2
13:51 38.6 °F 37.6 °F 29.77 in NW 11.5 mph 11.5 mph 96% 0.04 in 16.0 W/m2
13:56 38.6 °F 37.6 °F 29.77 in NW 11.5 mph 11.5 mph 96% 0.05 in 12.0 W/m2
14:01 38.4 °F 37.6 °F 29.77 in NW 11.5 mph 11.5 mph 97% 0.06 in 16.0 W/m2
14:06 38.3 °F 37.5 °F 29.77 in WNW 11.5 mph 11.5 mph 97% 0.07 in 21.0 W/m2
14:11 38.3 °F 37.5 °F 29.77 in NW 11.5 mph 11.5 mph 97% 0.07 in 37.0 W/m2
14:16 38.3 °F 37.5 °F 29.77 in NW 12.7 mph 12.7 mph 97% 0.07 in 53.0 W/m2
14:21 38.4 °F 37.6 °F 29.77 in NW 11.5 mph 11.5 mph 97% 0.07 in 79.0 W/m2
14:26 38.5 °F 37.7 °F 29.77 in WNW 12.0 mph 12.0 mph 97% 0.07 in 44.0 W/m2
14:31 38.5 °F 37.7 °F 29.77 in NW 15.0 mph 15.0 mph 97% 0.07 in 28.0 W/m2
14:36 38.3 °F 37.5 °F 29.77 in NW 14.0 mph 14.0 mph 97% 0.06 in 37.0 W/m2
14:41 38.2 °F 37.4 °F 29.78 in NW 12.7 mph 12.7 mph 97% 0.05 in 23.0 W/m2
14:46 38.1 °F 37.1 °F 29.78 in NNW 15.0 mph 15.0 mph 96% 0.04 in 23.0 W/m2
14:51 38.0 °F 37.0 °F 29.78 in NW 12.7 mph 12.7 mph 96% 0.04 in 26.0 W/m2
14:56 38.0 °F 37.0 °F 29.78 in NW 12.7 mph 12.7 mph 96% 0.02 in 33.0 W/m2
15:01 38.0 °F 37.0 °F 29.78 in WNW 13.0 mph 13.0 mph 96% 0.01 in 23.0 W/m2
15:06 37.9 °F 36.9 °F 29.78 in NW 12.7 mph 12.7 mph 96% 0.00 in 26.0 W/m2
15:11 37.8 °F 36.8 °F 29.78 in NW 12.7 mph 12.7 mph 96% 0.00 in 28.0 W/m2
15:16 37.8 °F 36.8 °F 29.79 in NW 11.5 mph 11.5 mph 96% 0.00 in 25.0 W/m2
15:21 37.7 °F 36.7 °F 29.78 in NW 15.0 mph 15.0 mph 96% 0.00 in 25.0 W/m2
15:26 37.8 °F 36.8 °F 29.79 in NW 12.7 mph 12.7 mph 96% 0.01 in 25.0 W/m2
15:31 37.7 °F 36.7 °F 29.79 in NW 10.4 mph 10.4 mph 96% 0.01 in 14.0 W/m2
15:36 37.7 °F 36.7 °F 29.79 in NW 11.5 mph 11.5 mph 96% 0.01 in 7.0 W/m2
15:41 37.6 °F 36.6 °F 29.80 in WNW 11.5 mph 11.5 mph 96% 0.01 in 5.0 W/m2
15:46 37.5 °F 36.5 °F 29.80 in WNW 9.2 mph 9.2 mph 96% 0.01 in 5.0 W/m2
15:51 37.4 °F 36.4 °F 29.80 in NW 10.0 mph 10.0 mph 96% 0.01 in 0.0 W/m2
15:56 37.4 °F 36.4 °F 29.80 in NW 11.5 mph 11.5 mph 96% 0.01 in 0.0 W/m2
16:01 37.3 °F 36.3 °F 29.81 in WNW 11.5 mph 11.5 mph 96% 0.01 in 0.0 W/m2
16:02 37.3 °F 36.3 °F 29.81 in NW 10.4 mph 10.4 mph 96% 0.01 in 0.0 W/m2
16:07 37.3 °F 36.3 °F 29.81 in WSW 12.7 mph 12.7 mph 96% 0.01 in 0.0 W/m2
16:17 37.2 °F 36.2 °F 29.82 in NW 13.8 mph 13.8 mph 96% 0.01 in 0.0 W/m2
16:22 37.1 °F 36.1 °F 29.82 in WNW 10.4 mph 10.4 mph 96% 0.01 in 0.0 W/m2
16:27 37.0 °F 36.0 °F 29.82 in WNW 11.5 mph 11.5 mph 96% 0.00 in 0.0 W/m2
16:32 37.0 °F 35.7 °F 29.82 in WNW 11.5 mph 11.5 mph 95% 0.00 in 0.0 W/m2
16:37 36.9 °F 35.6 °F 29.82 in NW 13.8 mph 13.8 mph 95% 0.00 in 0.0 W/m2
16:42 36.9 °F 35.6 °F 29.83 in NW 12.7 mph 12.7 mph 95% 0.00 in 0.0 W/m2
16:47 36.9 °F 35.6 °F 29.83 in NW 13.8 mph 13.8 mph 95% 0.00 in 0.0 W/m2
16:52 36.8 °F 35.5 °F 29.83 in NW 15.0 mph 15.0 mph 95% 0.00 in 0.0 W/m2
16:57 36.7 °F 35.4 °F 29.83 in WNW 18.4 mph 18.4 mph 95% 0.00 in 0.0 W/m2
17:02 36.6 °F 35.3 °F 29.84 in NW 16.1 mph 16.1 mph 95% 0.00 in 0.0 W/m2
17:07 36.5 °F 35.2 °F 29.84 in NW 13.0 mph 13.0 mph 95% 0.00 in 0.0 W/m2
17:12 36.3 °F 35.0 °F 29.84 in West 19.6 mph 19.6 mph 95% 0.00 in 0.0 W/m2
17:17 36.1 °F 34.8 °F 29.84 in NW 18.4 mph 18.4 mph 95% 0.00 in 0.0 W/m2
17:22 36.0 °F 34.7 °F 29.85 in WNW 17.3 mph 17.3 mph 95% 0.00 in 0.0 W/m2
17:27 35.8 °F 34.5 °F 29.85 in WNW 19.6 mph 19.6 mph 95% 0.00 in 0.0 W/m2
17:32 35.7 °F 34.4 °F 29.85 in WNW 20.7 mph 20.7 mph 95% 0.00 in 0.0 W/m2
17:37 35.7 °F 34.4 °F 29.85 in WNW 24.2 mph 24.2 mph 95% 0.00 in 0.0 W/m2
17:42 35.6 °F 34.3 °F 29.85 in NW 15.0 mph 15.0 mph 95% 0.00 in 0.0 W/m2
17:47 35.5 °F 34.2 °F 29.86 in NW 17.3 mph 17.3 mph 95% 0.00 in 0.0 W/m2
17:52 35.4 °F 34.1 °F 29.85 in WNW 16.1 mph 16.1 mph 95% 0.00 in 0.0 W/m2
17:57 35.3 °F 34.0 °F 29.86 in WNW 19.6 mph 19.6 mph 95% 0.00 in 0.0 W/m2
18:02 35.2 °F 33.9 °F 29.86 in NW 19.6 mph 19.6 mph 95% 0.00 in 0.0 W/m2
18:07 35.1 °F 33.8 °F 29.86 in NW 18.4 mph 18.4 mph 95% 0.00 in 0.0 W/m2
18:12 35.0 °F 33.7 °F 29.86 in NW 19.6 mph 19.6 mph 95% 0.00 in 0.0 W/m2
18:17 34.8 °F 33.5 °F 29.86 in NW 15.0 mph 15.0 mph 95% 0.00 in 0.0 W/m2
18:22 34.7 °F 33.4 °F 29.87 in NW 19.6 mph 19.6 mph 95% 0.00 in 0.0 W/m2
18:27 34.6 °F 33.3 °F 29.87 in NW 18.0 mph 18.0 mph 95% 0.00 in 0.0 W/m2
18:32 34.5 °F 33.2 °F 29.87 in WNW 12.0 mph 12.0 mph 95% 0.00 in 0.0 W/m2
18:37 34.4 °F 33.1 °F 29.87 in NW 11.5 mph 11.5 mph 95% 0.00 in 0.0 W/m2
18:42 34.3 °F 33.0 °F 29.87 in WNW 13.8 mph 13.8 mph 95% 0.00 in 0.0 W/m2
18:47 34.3 °F 33.0 °F 29.87 in NW 11.5 mph 11.5 mph 95% 0.00 in 0.0 W/m2
18:52 34.2 °F 32.9 °F 29.87 in NW 11.5 mph 11.5 mph 95% 0.00 in 0.0 W/m2
18:57 34.1 °F 32.8 °F 29.87 in WSW 11.5 mph 11.5 mph 95% 0.00 in 0.0 W/m2
19:02 34.0 °F 32.7 °F 29.87 in WNW 17.3 mph 17.3 mph 95% 0.00 in 0.0 W/m2
19:07 33.9 °F 32.6 °F 29.88 in WNW 11.5 mph 11.5 mph 95% 0.00 in 0.0 W/m2
19:12 33.9 °F 32.6 °F 29.88 in NW 11.5 mph 11.5 mph 95% 0.00 in 0.0 W/m2
19:17 33.8 °F 32.5 °F 29.88 in WNW 11.5 mph 11.5 mph 95% 0.00 in 0.0 W/m2
19:22 33.6 °F 32.3 °F 29.88 in NW 18.4 mph 18.4 mph 95% 0.00 in 0.0 W/m2
19:27 33.5 °F 32.0 °F 29.88 in West 15.0 mph 15.0 mph 94% 0.00 in 0.0 W/m2
19:32 33.4 °F 31.9 °F 29.88 in NW 13.8 mph 13.8 mph 94% 0.00 in 0.0 W/m2
19:37 33.3 °F 31.8 °F 29.88 in NW 19.6 mph 19.6 mph 94% 0.00 in 0.0 W/m2
19:42 33.2 °F 31.7 °F 29.89 in WNW 12.0 mph 12.0 mph 94% 0.00 in 0.0 W/m2
19:47 32.9 °F 31.4 °F 29.88 in NW 13.8 mph 13.8 mph 94% 0.00 in 0.0 W/m2
19:52 32.8 °F 31.3 °F 29.88 in NW 13.0 mph 13.0 mph 94% 0.00 in 0.0 W/m2
19:57 32.7 °F 31.2 °F 29.88 in WNW 13.8 mph 13.8 mph 94% 0.00 in 0.0 W/m2
20:02 32.5 °F 31.0 °F 29.88 in WNW 10.0 mph 10.0 mph 94% 0.00 in 0.0 W/m2
20:07 32.3 °F 30.5 °F 29.88 in WNW 16.1 mph 16.1 mph 93% 0.00 in 0.0 W/m2
20:12 32.2 °F 30.4 °F 29.89 in NW 18.4 mph 18.4 mph 93% 0.00 in 0.0 W/m2
20:17 32.0 °F 30.2 °F 29.90 in WNW 19.6 mph 19.6 mph 93% 0.00 in 0.0 W/m2
20:22 31.9 °F 29.8 °F 29.90 in WNW 12.7 mph 12.7 mph 92% 0.00 in 0.0 W/m2
20:27 31.7 °F 29.6 °F 29.90 in NW 17.3 mph 17.3 mph 92% 0.00 in 0.0 W/m2
20:32 31.6 °F 29.3 °F 29.90 in West 12.7 mph 12.7 mph 91% 0.00 in 0.0 W/m2
20:37 31.4 °F 29.1 °F 29.90 in WNW 11.5 mph 11.5 mph 91% 0.00 in 0.0 W/m2
20:42 31.1 °F 28.2 °F 29.90 in NW 19.6 mph 19.6 mph 89% 0.00 in 0.0 W/m2
20:47 31.0 °F 28.1 °F 29.90 in West 17.3 mph 17.3 mph 89% 0.00 in 0.0 W/m2
20:52 30.4 °F 27.5 °F 29.90 in West 19.6 mph 19.6 mph 89% 0.00 in 0.0 W/m2
20:57 29.8 °F 27.0 °F 29.90 in WNW 18.0 mph 18.0 mph 89% 0.00 in 0.0 W/m2
21:02 29.3 °F 26.5 °F 29.90 in WNW 19.6 mph 19.6 mph 89% 0.00 in 0.0 W/m2
21:07 29.0 °F 26.2 °F 29.90 in WSW 19.6 mph 19.6 mph 89% 0.00 in 0.0 W/m2
21:12 28.7 °F 25.9 °F 29.90 in West 12.7 mph 12.7 mph 89% 0.00 in 0.0 W/m2
21:17 28.3 °F 25.5 °F 29.90 in West 18.4 mph 18.4 mph 89% 0.00 in 0.0 W/m2
21:22 28.3 °F 25.7 °F 29.90 in NW 11.5 mph 11.5 mph 90% 0.00 in 0.0 W/m2
21:28 28.2 °F 25.4 °F 29.90 in NW 14.0 mph 14.0 mph 89% 0.00 in 0.0 W/m2
21:33 28.0 °F 24.9 °F 29.90 in WNW 23.0 mph 23.0 mph 88% 0.00 in 0.0 W/m2
21:38 27.8 °F 24.7 °F 29.90 in West 17.3 mph 17.3 mph 88% 0.00 in 0.0 W/m2
21:43 27.5 °F 24.1 °F 29.90 in WNW 23.0 mph 23.0 mph 87% 0.00 in 0.0 W/m2
21:48 27.2 °F 23.8 °F 29.90 in NW 18.4 mph 18.4 mph 87% 0.00 in 0.0 W/m2
21:53 27.1 °F 23.5 °F 29.91 in NW 14.0 mph 14.0 mph 86% 0.00 in 0.0 W/m2
21:57 26.9 °F 23.5 °F 29.92 in WNW 10.4 mph 10.4 mph 87% 0.00 in 0.0 W/m2
22:02 26.8 °F 23.4 °F 29.92 in WNW 11.5 mph 11.5 mph 87% 0.00 in 0.0 W/m2
22:07 26.6 °F 23.3 °F 29.92 in NW 12.7 mph 12.7 mph 87% 0.00 in 0.0 W/m2
22:12 26.4 °F 23.1 °F 29.92 in NW 11.5 mph 11.5 mph 87% 0.00 in 0.0 W/m2
22:17 26.2 °F 22.9 °F 29.93 in West 18.4 mph 18.4 mph 87% 0.00 in 0.0 W/m2
22:22 25.9 °F 22.3 °F 29.93 in WNW 12.7 mph 12.7 mph 86% 0.00 in 0.0 W/m2
22:27 25.8 °F 22.2 °F 29.94 in NW 15.0 mph 15.0 mph 86% 0.00 in 0.0 W/m2
22:32 25.4 °F 21.5 °F 29.93 in WNW 11.5 mph 11.5 mph 85% 0.00 in 0.0 W/m2
22:37 24.9 °F 21.3 °F 29.93 in WNW 11.5 mph 11.5 mph 86% 0.00 in 0.0 W/m2
22:42 24.6 °F 21.0 °F 29.94 in WNW 18.4 mph 18.4 mph 86% 0.00 in 0.0 W/m2
22:48 24.3 °F 20.4 °F 29.94 in West 19.6 mph 19.6 mph 85% 0.00 in 0.0 W/m2
22:53 24.0 °F 19.9 °F 29.94 in West 18.4 mph 18.4 mph 84% 0.00 in 0.0 W/m2
22:58 23.8 °F 19.4 °F 29.95 in WSW 18.4 mph 18.4 mph 83% 0.00 in 0.0 W/m2
23:03 23.6 °F 19.5 °F 29.95 in NW 14.0 mph 14.0 mph 84% 0.00 in 0.0 W/m2
23:08 23.3 °F 19.2 °F 29.95 in WSW 19.6 mph 19.6 mph 84% 0.00 in 0.0 W/m2
23:13 23.1 °F 19.0 °F 29.95 in NW 15.0 mph 15.0 mph 84% 0.00 in 0.0 W/m2
23:18 22.8 °F 18.7 °F 29.95 in NW 11.5 mph 11.5 mph 84% 0.00 in 0.0 W/m2
23:23 22.5 °F 18.4 °F 29.95 in WNW 19.6 mph 19.6 mph 84% 0.00 in 0.0 W/m2
23:28 22.3 °F 18.5 °F 29.95 in West 15.0 mph 15.0 mph 85% 0.00 in 0.0 W/m2
23:33 22.1 °F 18.0 °F 29.95 in WNW 15.0 mph 15.0 mph 84% 0.00 in 0.0 W/m2
23:38 22.0 °F 17.3 °F 29.95 in NW 19.6 mph 19.6 mph 82% 0.00 in 0.0 W/m2
23:43 22.0 °F 17.6 °F 29.96 in WNW 11.5 mph 11.5 mph 83% 0.00 in 0.0 W/m2
23:48 21.7 °F 17.3 °F 29.96 in NW 13.8 mph 13.8 mph 83% 0.00 in 0.0 W/m2
23:53 21.3 °F 16.9 °F 29.96 in West 17.3 mph 17.3 mph 83% 0.00 in 0.0 W/m2
23:58 21.2 °F 16.8 °F 29.96 in WSW 15.0 mph 15.0 mph 83% 0.00 in 0.0 W/m2
Bourbonnais, Illinois, USA
Compliments of Weather Underground - 4 mb